sensor_id;sensor_type;location;lat;lon;timestamp;P1;durP1;ratioP1;P2;durP2;ratioP2
46777;SDS011;32536;47.128;8.746;2024-01-15T00:00:56;2.20;;;1.98;;
46777;SDS011;32536;47.128;8.746;2024-01-15T00:03:23;2.97;;;0.90;;
46777;SDS011;32536;47.128;8.746;2024-01-15T00:05:50;5.00;;;1.58;;
46777;SDS011;32536;47.128;8.746;2024-01-15T00:08:17;1.63;;;1.23;;
46777;SDS011;32536;47.128;8.746;2024-01-15T00:10:43;1.85;;;1.35;;
46777;SDS011;32536;47.128;8.746;2024-01-15T00:13:10;2.72;;;1.10;;
46777;SDS011;32536;47.128;8.746;2024-01-15T00:15:37;3.95;;;2.75;;
46777;SDS011;32536;47.128;8.746;2024-01-15T00:18:04;3.28;;;2.53;;
46777;SDS011;32536;47.128;8.746;2024-01-15T00:20:31;4.85;;;3.58;;
46777;SDS011;32536;47.128;8.746;2024-01-15T00:22:58;10.23;;;2.78;;
46777;SDS011;32536;47.128;8.746;2024-01-15T00:25:24;3.95;;;2.22;;
46777;SDS011;32536;47.128;8.746;2024-01-15T00:27:51;3.00;;;2.17;;
46777;SDS011;32536;47.128;8.746;2024-01-15T00:30:18;4.53;;;1.83;;
46777;SDS011;32536;47.128;8.746;2024-01-15T00:32:45;3.83;;;1.92;;
46777;SDS011;32536;47.128;8.746;2024-01-15T00:35:12;2.97;;;1.50;;
46777;SDS011;32536;47.128;8.746;2024-01-15T00:37:38;5.05;;;3.58;;
46777;SDS011;32536;47.128;8.746;2024-01-15T00:40:05;4.82;;;2.28;;
46777;SDS011;32536;47.128;8.746;2024-01-15T00:42:33;2.88;;;1.85;;
46777;SDS011;32536;47.128;8.746;2024-01-15T00:45:00;4.80;;;2.03;;
46777;SDS011;32536;47.128;8.746;2024-01-15T00:47:27;4.88;;;2.38;;
46777;SDS011;32536;47.128;8.746;2024-01-15T00:49:54;2.72;;;1.98;;
46777;SDS011;32536;47.128;8.746;2024-01-15T00:52:20;3.45;;;1.67;;
46777;SDS011;32536;47.128;8.746;2024-01-15T00:54:47;2.83;;;1.58;;
46777;SDS011;32536;47.128;8.746;2024-01-15T00:57:14;2.28;;;1.33;;
46777;SDS011;32536;47.128;8.746;2024-01-15T00:59:41;2.30;;;1.20;;
46777;SDS011;32536;47.128;8.746;2024-01-15T01:02:07;2.63;;;1.65;;
46777;SDS011;32536;47.128;8.746;2024-01-15T01:04:34;1.80;;;1.17;;
46777;SDS011;32536;47.128;8.746;2024-01-15T01:07:01;5.88;;;2.15;;
46777;SDS011;32536;47.128;8.746;2024-01-15T01:09:28;2.42;;;1.73;;
46777;SDS011;32536;47.128;8.746;2024-01-15T01:11:56;3.47;;;2.60;;
46777;SDS011;32536;47.128;8.746;2024-01-15T01:14:23;2.83;;;2.17;;
46777;SDS011;32536;47.128;8.746;2024-01-15T01:16:50;3.20;;;2.40;;
46777;SDS011;32536;47.128;8.746;2024-01-15T01:19:16;2.92;;;1.70;;
46777;SDS011;32536;47.128;8.746;2024-01-15T01:21:43;2.35;;;1.95;;
46777;SDS011;32536;47.128;8.746;2024-01-15T01:24:10;3.92;;;2.13;;
46777;SDS011;32536;47.128;8.746;2024-01-15T01:26:37;2.50;;;1.75;;
46777;SDS011;32536;47.128;8.746;2024-01-15T01:29:03;2.17;;;1.50;;
46777;SDS011;32536;47.128;8.746;2024-01-15T01:31:30;4.30;;;2.85;;
46777;SDS011;32536;47.128;8.746;2024-01-15T01:33:57;2.60;;;1.58;;
46777;SDS011;32536;47.128;8.746;2024-01-15T01:36:23;2.33;;;1.70;;
46777;SDS011;32536;47.128;8.746;2024-01-15T01:38:50;2.60;;;1.63;;
46777;SDS011;32536;47.128;8.746;2024-01-15T01:41:17;2.78;;;1.55;;
46777;SDS011;32536;47.128;8.746;2024-01-15T01:43:44;3.33;;;2.08;;
46777;SDS011;32536;47.128;8.746;2024-01-15T01:46:11;2.22;;;1.52;;
46777;SDS011;32536;47.128;8.746;2024-01-15T01:48:38;4.85;;;2.90;;
46777;SDS011;32536;47.128;8.746;2024-01-15T01:51:05;3.72;;;1.77;;
46777;SDS011;32536;47.128;8.746;2024-01-15T01:53:33;2.22;;;1.48;;
46777;SDS011;32536;47.128;8.746;2024-01-15T01:56:03;2.50;;;2.25;;
46777;SDS011;32536;47.128;8.746;2024-01-15T01:58:31;3.30;;;2.78;;
46777;SDS011;32536;47.128;8.746;2024-01-15T02:00:59;3.03;;;2.08;;
46777;SDS011;32536;47.128;8.746;2024-01-15T02:03:26;2.53;;;1.55;;
46777;SDS011;32536;47.128;8.746;2024-01-15T02:05:54;3.00;;;2.38;;
46777;SDS011;32536;47.128;8.746;2024-01-15T02:08:22;2.55;;;1.42;;
46777;SDS011;32536;47.128;8.746;2024-01-15T02:10:49;2.97;;;2.25;;
46777;SDS011;32536;47.128;8.746;2024-01-15T02:13:16;3.20;;;2.65;;
46777;SDS011;32536;47.128;8.746;2024-01-15T02:18:52;3.15;;;2.83;;
46777;SDS011;32536;47.128;8.746;2024-01-15T02:21:19;3.03;;;2.13;;
46777;SDS011;32536;47.128;8.746;2024-01-15T02:23:46;3.33;;;1.77;;
46777;SDS011;32536;47.128;8.746;2024-01-15T02:26:12;2.97;;;2.47;;
46777;SDS011;32536;47.128;8.746;2024-01-15T02:28:40;3.22;;;2.72;;
46777;SDS011;32536;47.128;8.746;2024-01-15T02:31:10;3.83;;;2.53;;
46777;SDS011;32536;47.128;8.746;2024-01-15T02:33:36;3.15;;;2.85;;
46777;SDS011;32536;47.128;8.746;2024-01-15T02:36:03;2.90;;;2.28;;
46777;SDS011;32536;47.128;8.746;2024-01-15T02:38:30;3.28;;;1.55;;
46777;SDS011;32536;47.128;8.746;2024-01-15T02:40:58;3.60;;;2.65;;
46777;SDS011;32536;47.128;8.746;2024-01-15T02:43:25;2.90;;;1.67;;
46777;SDS011;32536;47.128;8.746;2024-01-15T02:45:52;3.47;;;2.40;;
46777;SDS011;32536;47.128;8.746;2024-01-15T02:48:18;3.25;;;2.33;;
46777;SDS011;32536;47.128;8.746;2024-01-15T02:50:45;2.53;;;1.58;;
46777;SDS011;32536;47.128;8.746;2024-01-15T02:53:12;3.63;;;2.97;;
46777;SDS011;32536;47.128;8.746;2024-01-15T02:55:39;2.97;;;1.58;;
46777;SDS011;32536;47.128;8.746;2024-01-15T02:58:06;4.28;;;2.58;;
46777;SDS011;32536;47.128;8.746;2024-01-15T03:00:33;3.35;;;1.90;;
46777;SDS011;32536;47.128;8.746;2024-01-15T03:03:00;4.00;;;2.65;;
46777;SDS011;32536;47.128;8.746;2024-01-15T03:05:27;3.30;;;1.80;;
46777;SDS011;32536;47.128;8.746;2024-01-15T03:07:53;4.78;;;3.10;;
46777;SDS011;32536;47.128;8.746;2024-01-15T03:10:20;5.22;;;3.80;;
46777;SDS011;32536;47.128;8.746;2024-01-15T03:12:47;3.78;;;1.88;;
46777;SDS011;32536;47.128;8.746;2024-01-15T03:15:14;4.55;;;1.90;;
46777;SDS011;32536;47.128;8.746;2024-01-15T03:17:41;5.38;;;3.17;;
46777;SDS011;32536;47.128;8.746;2024-01-15T03:20:08;5.80;;;4.15;;
46777;SDS011;32536;47.128;8.746;2024-01-15T03:22:36;4.38;;;3.17;;
46777;SDS011;32536;47.128;8.746;2024-01-15T03:25:03;3.97;;;2.75;;
46777;SDS011;32536;47.128;8.746;2024-01-15T03:27:31;4.70;;;3.10;;
46777;SDS011;32536;47.128;8.746;2024-01-15T03:29:59;4.53;;;3.08;;
46777;SDS011;32536;47.128;8.746;2024-01-15T03:32:26;4.50;;;3.33;;
46777;SDS011;32536;47.128;8.746;2024-01-15T03:34:52;3.80;;;2.40;;
46777;SDS011;32536;47.128;8.746;2024-01-15T03:37:19;3.42;;;2.10;;
46777;SDS011;32536;47.128;8.746;2024-01-15T03:39:46;3.78;;;2.08;;
46777;SDS011;32536;47.128;8.746;2024-01-15T03:42:13;4.82;;;2.85;;
46777;SDS011;32536;47.128;8.746;2024-01-15T03:44:40;3.65;;;2.63;;
46777;SDS011;32536;47.128;8.746;2024-01-15T03:47:07;4.13;;;3.40;;
46777;SDS011;32536;47.128;8.746;2024-01-15T03:49:33;3.65;;;2.17;;
46777;SDS011;32536;47.128;8.746;2024-01-15T03:52:00;6.35;;;3.17;;
46777;SDS011;32536;47.128;8.746;2024-01-15T03:57:18;3.38;;;1.83;;
46777;SDS011;32536;47.128;8.746;2024-01-15T03:59:45;5.13;;;2.13;;
46777;SDS011;32536;47.128;8.746;2024-01-15T04:02:12;5.22;;;3.65;;
46777;SDS011;32536;47.128;8.746;2024-01-15T04:04:43;6.45;;;3.45;;
46777;SDS011;32536;47.128;8.746;2024-01-15T04:07:10;6.13;;;2.80;;
46777;SDS011;32536;47.128;8.746;2024-01-15T04:09:37;5.97;;;3.20;;
46777;SDS011;32536;47.128;8.746;2024-01-15T04:12:04;7.18;;;3.90;;
46777;SDS011;32536;47.128;8.746;2024-01-15T04:14:31;6.40;;;3.92;;
46777;SDS011;32536;47.128;8.746;2024-01-15T04:16:58;6.13;;;3.28;;
46777;SDS011;32536;47.128;8.746;2024-01-15T04:19:25;6.88;;;4.57;;
46777;SDS011;32536;47.128;8.746;2024-01-15T04:21:51;5.03;;;3.40;;
46777;SDS011;32536;47.128;8.746;2024-01-15T04:24:18;4.43;;;2.15;;
46777;SDS011;32536;47.128;8.746;2024-01-15T04:26:45;4.35;;;2.97;;
46777;SDS011;32536;47.128;8.746;2024-01-15T04:29:12;4.15;;;3.25;;
46777;SDS011;32536;47.128;8.746;2024-01-15T04:31:38;4.13;;;2.78;;
46777;SDS011;32536;47.128;8.746;2024-01-15T04:34:05;5.22;;;3.55;;
46777;SDS011;32536;47.128;8.746;2024-01-15T04:36:32;3.45;;;1.83;;
46777;SDS011;32536;47.128;8.746;2024-01-15T04:39:06;3.92;;;2.00;;
46777;SDS011;32536;47.128;8.746;2024-01-15T04:41:33;4.40;;;3.08;;
46777;SDS011;32536;47.128;8.746;2024-01-15T04:44:00;3.30;;;2.40;;
46777;SDS011;32536;47.128;8.746;2024-01-15T04:46:27;4.28;;;2.20;;
46777;SDS011;32536;47.128;8.746;2024-01-15T04:48:53;3.55;;;2.70;;
46777;SDS011;32536;47.128;8.746;2024-01-15T04:51:20;3.80;;;2.97;;
46777;SDS011;32536;47.128;8.746;2024-01-15T04:53:47;3.22;;;2.28;;
46777;SDS011;32536;47.128;8.746;2024-01-15T04:56:14;3.25;;;1.98;;
46777;SDS011;32536;47.128;8.746;2024-01-15T04:58:40;3.70;;;2.83;;
46777;SDS011;32536;47.128;8.746;2024-01-15T05:01:07;3.28;;;2.72;;
46777;SDS011;32536;47.128;8.746;2024-01-15T05:03:35;4.35;;;2.88;;
46777;SDS011;32536;47.128;8.746;2024-01-15T05:06:02;4.63;;;2.13;;
46777;SDS011;32536;47.128;8.746;2024-01-15T05:08:29;4.40;;;2.97;;
46777;SDS011;32536;47.128;8.746;2024-01-15T05:10:56;3.65;;;2.00;;
46777;SDS011;32536;47.128;8.746;2024-01-15T05:13:23;4.40;;;1.92;;
46777;SDS011;32536;47.128;8.746;2024-01-15T05:15:49;4.97;;;2.95;;
46777;SDS011;32536;47.128;8.746;2024-01-15T05:18:16;6.22;;;3.78;;
46777;SDS011;32536;47.128;8.746;2024-01-15T05:20:43;6.78;;;4.45;;
46777;SDS011;32536;47.128;8.746;2024-01-15T05:23:10;6.70;;;4.50;;
46777;SDS011;32536;47.128;8.746;2024-01-15T05:25:37;7.85;;;4.35;;
46777;SDS011;32536;47.128;8.746;2024-01-15T05:28:04;7.00;;;4.47;;
46777;SDS011;32536;47.128;8.746;2024-01-15T05:30:32;10.00;;;3.63;;
46777;SDS011;32536;47.128;8.746;2024-01-15T05:32:58;7.50;;;4.57;;
46777;SDS011;32536;47.128;8.746;2024-01-15T05:35:26;7.22;;;3.28;;
46777;SDS011;32536;47.128;8.746;2024-01-15T05:37:53;9.75;;;5.32;;
46777;SDS011;32536;47.128;8.746;2024-01-15T05:40:20;8.57;;;4.15;;
46777;SDS011;32536;47.128;8.746;2024-01-15T05:42:47;8.38;;;4.70;;
46777;SDS011;32536;47.128;8.746;2024-01-15T05:45:13;11.13;;;6.53;;
46777;SDS011;32536;47.128;8.746;2024-01-15T05:47:40;13.73;;;5.38;;
46777;SDS011;32536;47.128;8.746;2024-01-15T05:50:07;7.82;;;3.47;;
46777;SDS011;32536;47.128;8.746;2024-01-15T05:52:35;8.00;;;4.00;;
46777;SDS011;32536;47.128;8.746;2024-01-15T05:55:02;12.02;;;5.72;;
46777;SDS011;32536;47.128;8.746;2024-01-15T05:57:30;8.07;;;4.65;;
46777;SDS011;32536;47.128;8.746;2024-01-15T05:59:56;8.73;;;5.20;;
46777;SDS011;32536;47.128;8.746;2024-01-15T06:02:23;7.88;;;4.90;;
46777;SDS011;32536;47.128;8.746;2024-01-15T06:04:50;8.00;;;3.65;;
46777;SDS011;32536;47.128;8.746;2024-01-15T06:07:17;9.93;;;5.07;;
46777;SDS011;32536;47.128;8.746;2024-01-15T06:09:43;7.78;;;3.25;;
46777;SDS011;32536;47.128;8.746;2024-01-15T06:12:10;8.68;;;3.88;;
46777;SDS011;32536;47.128;8.746;2024-01-15T06:14:38;9.27;;;4.72;;
46777;SDS011;32536;47.128;8.746;2024-01-15T06:17:04;8.45;;;3.72;;
46777;SDS011;32536;47.128;8.746;2024-01-15T06:19:31;10.63;;;4.60;;
46777;SDS011;32536;47.128;8.746;2024-01-15T06:21:58;14.13;;;6.07;;
46777;SDS011;32536;47.128;8.746;2024-01-15T06:24:25;16.15;;;7.97;;
46777;SDS011;32536;47.128;8.746;2024-01-15T06:26:51;10.80;;;6.13;;
46777;SDS011;32536;47.128;8.746;2024-01-15T06:29:18;12.82;;;5.65;;
46777;SDS011;32536;47.128;8.746;2024-01-15T06:31:45;13.43;;;5.80;;
46777;SDS011;32536;47.128;8.746;2024-01-15T06:34:12;15.48;;;5.35;;
46777;SDS011;32536;47.128;8.746;2024-01-15T06:36:38;11.93;;;5.50;;
46777;SDS011;32536;47.128;8.746;2024-01-15T06:39:05;9.25;;;4.13;;
46777;SDS011;32536;47.128;8.746;2024-01-15T06:41:32;6.95;;;3.05;;
46777;SDS011;32536;47.128;8.746;2024-01-15T06:43:59;10.02;;;4.07;;
46777;SDS011;32536;47.128;8.746;2024-01-15T06:46:26;9.45;;;4.78;;
46777;SDS011;32536;47.128;8.746;2024-01-15T06:48:52;7.95;;;5.07;;
46777;SDS011;32536;47.128;8.746;2024-01-15T06:51:19;8.07;;;3.65;;
46777;SDS011;32536;47.128;8.746;2024-01-15T06:53:46;10.38;;;4.95;;
46777;SDS011;32536;47.128;8.746;2024-01-15T06:56:12;8.70;;;4.30;;
46777;SDS011;32536;47.128;8.746;2024-01-15T06:58:39;9.85;;;5.22;;
46777;SDS011;32536;47.128;8.746;2024-01-15T07:01:06;10.52;;;4.65;;
46777;SDS011;32536;47.128;8.746;2024-01-15T07:03:33;9.63;;;4.53;;
46777;SDS011;32536;47.128;8.746;2024-01-15T07:06:00;9.88;;;5.30;;
46777;SDS011;32536;47.128;8.746;2024-01-15T07:08:27;8.45;;;4.55;;
46777;SDS011;32536;47.128;8.746;2024-01-15T07:10:53;7.35;;;3.55;;
46777;SDS011;32536;47.128;8.746;2024-01-15T07:13:20;6.80;;;3.38;;
46777;SDS011;32536;47.128;8.746;2024-01-15T07:15:47;5.60;;;3.65;;
46777;SDS011;32536;47.128;8.746;2024-01-15T07:18:14;5.90;;;2.78;;
46777;SDS011;32536;47.128;8.746;2024-01-15T07:20:41;6.82;;;4.53;;
46777;SDS011;32536;47.128;8.746;2024-01-15T07:23:08;7.60;;;4.53;;
46777;SDS011;32536;47.128;8.746;2024-01-15T07:25:34;6.15;;;3.63;;
46777;SDS011;32536;47.128;8.746;2024-01-15T07:28:02;6.65;;;3.55;;
46777;SDS011;32536;47.128;8.746;2024-01-15T07:30:29;6.60;;;4.32;;
46777;SDS011;32536;47.128;8.746;2024-01-15T07:32:56;8.07;;;3.85;;
46777;SDS011;32536;47.128;8.746;2024-01-15T07:35:23;6.43;;;2.47;;
46777;SDS011;32536;47.128;8.746;2024-01-15T07:37:49;5.70;;;2.63;;
46777;SDS011;32536;47.128;8.746;2024-01-15T07:40:16;7.25;;;3.83;;
46777;SDS011;32536;47.128;8.746;2024-01-15T07:42:43;6.95;;;4.28;;
46777;SDS011;32536;47.128;8.746;2024-01-15T07:45:10;8.60;;;5.97;;
46777;SDS011;32536;47.128;8.746;2024-01-15T07:47:37;5.80;;;3.58;;
46777;SDS011;32536;47.128;8.746;2024-01-15T07:50:04;8.07;;;5.70;;
46777;SDS011;32536;47.128;8.746;2024-01-15T07:52:31;6.18;;;2.88;;
46777;SDS011;32536;47.128;8.746;2024-01-15T07:55:04;5.65;;;2.80;;
46777;SDS011;32536;47.128;8.746;2024-01-15T07:57:31;5.72;;;2.85;;
46777;SDS011;32536;47.128;8.746;2024-01-15T07:59:58;5.75;;;3.58;;
46777;SDS011;32536;47.128;8.746;2024-01-15T08:02:24;4.72;;;2.22;;
46777;SDS011;32536;47.128;8.746;2024-01-15T08:04:51;5.70;;;2.28;;
46777;SDS011;32536;47.128;8.746;2024-01-15T08:07:18;8.18;;;4.78;;
46777;SDS011;32536;47.128;8.746;2024-01-15T08:09:45;8.15;;;3.58;;
46777;SDS011;32536;47.128;8.746;2024-01-15T08:12:13;8.07;;;3.63;;
46777;SDS011;32536;47.128;8.746;2024-01-15T08:14:40;10.32;;;4.80;;
46777;SDS011;32536;47.128;8.746;2024-01-15T08:17:06;4.45;;;2.10;;
46777;SDS011;32536;47.128;8.746;2024-01-15T08:19:33;6.68;;;3.38;;
46777;SDS011;32536;47.128;8.746;2024-01-15T08:22:00;4.00;;;2.47;;
46777;SDS011;32536;47.128;8.746;2024-01-15T08:24:27;4.78;;;1.98;;
46777;SDS011;32536;47.128;8.746;2024-01-15T08:26:54;4.82;;;2.70;;
46777;SDS011;32536;47.128;8.746;2024-01-15T08:29:21;4.13;;;1.88;;
46777;SDS011;32536;47.128;8.746;2024-01-15T08:31:50;3.75;;;1.50;;
46777;SDS011;32536;47.128;8.746;2024-01-15T08:34:17;4.32;;;3.05;;
46777;SDS011;32536;47.128;8.746;2024-01-15T08:36:43;4.28;;;1.95;;
46777;SDS011;32536;47.128;8.746;2024-01-15T08:39:10;4.82;;;3.58;;
46777;SDS011;32536;47.128;8.746;2024-01-15T08:41:37;5.10;;;3.80;;
46777;SDS011;32536;47.128;8.746;2024-01-15T08:44:04;7.05;;;4.00;;
46777;SDS011;32536;47.128;8.746;2024-01-15T08:46:31;8.48;;;4.05;;
46777;SDS011;32536;47.128;8.746;2024-01-15T08:48:57;6.35;;;3.47;;
46777;SDS011;32536;47.128;8.746;2024-01-15T08:51:24;5.75;;;3.45;;
46777;SDS011;32536;47.128;8.746;2024-01-15T08:53:51;7.05;;;4.53;;
46777;SDS011;32536;47.128;8.746;2024-01-15T08:56:18;6.53;;;3.45;;
46777;SDS011;32536;47.128;8.746;2024-01-15T08:58:44;4.85;;;2.47;;
46777;SDS011;32536;47.128;8.746;2024-01-15T09:01:11;4.80;;;3.05;;
46777;SDS011;32536;47.128;8.746;2024-01-15T09:03:39;4.80;;;3.05;;
46777;SDS011;32536;47.128;8.746;2024-01-15T09:06:09;6.32;;;2.55;;
46777;SDS011;32536;47.128;8.746;2024-01-15T09:08:36;6.03;;;3.45;;
46777;SDS011;32536;47.128;8.746;2024-01-15T09:11:03;4.90;;;3.58;;
46777;SDS011;32536;47.128;8.746;2024-01-15T09:13:30;4.15;;;2.42;;
46777;SDS011;32536;47.128;8.746;2024-01-15T09:15:57;3.75;;;2.15;;
46777;SDS011;32536;47.128;8.746;2024-01-15T09:18:25;4.30;;;2.17;;
46777;SDS011;32536;47.128;8.746;2024-01-15T09:20:52;3.63;;;2.10;;
46777;SDS011;32536;47.128;8.746;2024-01-15T09:23:19;4.68;;;3.30;;
46777;SDS011;32536;47.128;8.746;2024-01-15T09:25:45;3.30;;;2.35;;
46777;SDS011;32536;47.128;8.746;2024-01-15T09:28:14;5.07;;;3.63;;
46777;SDS011;32536;47.128;8.746;2024-01-15T09:30:41;4.45;;;2.67;;
46777;SDS011;32536;47.128;8.746;2024-01-15T09:33:07;5.63;;;3.90;;
46777;SDS011;32536;47.128;8.746;2024-01-15T09:35:35;6.07;;;3.55;;
46777;SDS011;32536;47.128;8.746;2024-01-15T09:38:02;4.53;;;2.50;;
46777;SDS011;32536;47.128;8.746;2024-01-15T09:40:31;6.30;;;2.88;;
46777;SDS011;32536;47.128;8.746;2024-01-15T09:42:59;6.05;;;3.33;;
46777;SDS011;32536;47.128;8.746;2024-01-15T09:45:27;5.85;;;3.88;;
46777;SDS011;32536;47.128;8.746;2024-01-15T09:47:54;5.47;;;3.45;;
46777;SDS011;32536;47.128;8.746;2024-01-15T09:50:21;4.68;;;2.83;;
46777;SDS011;32536;47.128;8.746;2024-01-15T09:52:48;5.15;;;2.90;;
46777;SDS011;32536;47.128;8.746;2024-01-15T09:55:17;4.18;;;2.75;;
46777;SDS011;32536;47.128;8.746;2024-01-15T09:57:44;5.72;;;2.70;;
46777;SDS011;32536;47.128;8.746;2024-01-15T10:00:14;4.82;;;2.13;;
46777;SDS011;32536;47.128;8.746;2024-01-15T10:02:44;3.17;;;1.73;;
46777;SDS011;32536;47.128;8.746;2024-01-15T10:05:11;3.85;;;2.50;;
46777;SDS011;32536;47.128;8.746;2024-01-15T10:07:37;4.35;;;1.95;;
46777;SDS011;32536;47.128;8.746;2024-01-15T10:10:05;4.47;;;2.22;;
46777;SDS011;32536;47.128;8.746;2024-01-15T10:12:34;6.45;;;3.53;;
46777;SDS011;32536;47.128;8.746;2024-01-15T10:15:01;4.97;;;2.33;;
46777;SDS011;32536;47.128;8.746;2024-01-15T10:17:29;4.65;;;3.00;;
46777;SDS011;32536;47.128;8.746;2024-01-15T10:19:57;4.32;;;2.75;;
46777;SDS011;32536;47.128;8.746;2024-01-15T10:22:23;5.40;;;3.25;;
46777;SDS011;32536;47.128;8.746;2024-01-15T10:24:51;5.68;;;3.33;;
46777;SDS011;32536;47.128;8.746;2024-01-15T10:27:18;4.45;;;3.05;;
46777;SDS011;32536;47.128;8.746;2024-01-15T10:29:44;4.68;;;3.72;;
46777;SDS011;32536;47.128;8.746;2024-01-15T10:32:11;5.15;;;3.17;;
46777;SDS011;32536;47.128;8.746;2024-01-15T10:34:39;3.00;;;1.92;;
46777;SDS011;32536;47.128;8.746;2024-01-15T10:37:09;3.22;;;2.03;;
46777;SDS011;32536;47.128;8.746;2024-01-15T10:39:36;5.78;;;3.85;;
46777;SDS011;32536;47.128;8.746;2024-01-15T10:42:04;6.07;;;3.15;;
46777;SDS011;32536;47.128;8.746;2024-01-15T10:44:31;4.90;;;3.63;;
46777;SDS011;32536;47.128;8.746;2024-01-15T10:46:59;6.22;;;3.97;;
46777;SDS011;32536;47.128;8.746;2024-01-15T10:49:26;5.53;;;3.00;;
46777;SDS011;32536;47.128;8.746;2024-01-15T10:51:54;6.70;;;4.55;;
46777;SDS011;32536;47.128;8.746;2024-01-15T10:54:23;5.15;;;3.10;;
46777;SDS011;32536;47.128;8.746;2024-01-15T10:56:51;5.43;;;4.10;;
46777;SDS011;32536;47.128;8.746;2024-01-15T10:59:18;5.28;;;4.13;;
46777;SDS011;32536;47.128;8.746;2024-01-15T11:01:48;8.18;;;4.70;;
46777;SDS011;32536;47.128;8.746;2024-01-15T11:04:19;4.65;;;3.22;;
46777;SDS011;32536;47.128;8.746;2024-01-15T11:06:49;4.40;;;3.40;;
46777;SDS011;32536;47.128;8.746;2024-01-15T11:09:19;5.28;;;3.10;;
46777;SDS011;32536;47.128;8.746;2024-01-15T11:11:46;6.50;;;3.85;;
46777;SDS011;32536;47.128;8.746;2024-01-15T11:14:34;7.93;;;3.83;;
46777;SDS011;32536;47.128;8.746;2024-01-15T11:17:10;7.05;;;4.70;;
46777;SDS011;32536;47.128;8.746;2024-01-15T11:19:38;7.43;;;3.97;;
46777;SDS011;32536;47.128;8.746;2024-01-15T11:22:57;8.68;;;4.85;;
46777;SDS011;32536;47.128;8.746;2024-01-15T11:25:05;8.73;;;4.50;;
46777;SDS011;32536;47.128;8.746;2024-01-15T11:27:40;9.23;;;4.97;;
46777;SDS011;32536;47.128;8.746;2024-01-15T11:30:09;7.00;;;4.13;;
46777;SDS011;32536;47.128;8.746;2024-01-15T11:32:38;5.35;;;3.53;;
46777;SDS011;32536;47.128;8.746;2024-01-15T11:35:12;7.05;;;3.80;;
46777;SDS011;32536;47.128;8.746;2024-01-15T11:40:21;6.93;;;3.17;;
46777;SDS011;32536;47.128;8.746;2024-01-15T11:43:03;7.00;;;4.20;;
46777;SDS011;32536;47.128;8.746;2024-01-15T11:45:31;4.53;;;2.83;;
46777;SDS011;32536;47.128;8.746;2024-01-15T11:48:12;5.10;;;3.70;;
46777;SDS011;32536;47.128;8.746;2024-01-15T11:50:43;5.65;;;4.00;;
46777;SDS011;32536;47.128;8.746;2024-01-15T11:56:21;5.50;;;3.60;;
46777;SDS011;32536;47.128;8.746;2024-01-15T11:58:49;4.70;;;2.00;;
46777;SDS011;32536;47.128;8.746;2024-01-15T12:01:17;6.10;;;4.15;;
46777;SDS011;32536;47.128;8.746;2024-01-15T12:03:47;5.20;;;2.65;;
46777;SDS011;32536;47.128;8.746;2024-01-15T12:06:13;5.70;;;3.95;;
46777;SDS011;32536;47.128;8.746;2024-01-15T12:08:40;5.25;;;3.22;;
46777;SDS011;32536;47.128;8.746;2024-01-15T12:11:09;5.18;;;3.30;;
46777;SDS011;32536;47.128;8.746;2024-01-15T12:13:39;4.57;;;1.88;;
46777;SDS011;32536;47.128;8.746;2024-01-15T12:16:06;7.47;;;5.35;;
46777;SDS011;32536;47.128;8.746;2024-01-15T12:18:33;7.47;;;3.40;;
46777;SDS011;32536;47.128;8.746;2024-01-15T12:21:00;7.32;;;3.78;;
46777;SDS011;32536;47.128;8.746;2024-01-15T12:23:27;5.80;;;2.92;;
46777;SDS011;32536;47.128;8.746;2024-01-15T12:25:54;6.78;;;3.42;;
46777;SDS011;32536;47.128;8.746;2024-01-15T12:28:21;6.22;;;4.07;;
46777;SDS011;32536;47.128;8.746;2024-01-15T12:30:48;5.65;;;3.33;;
46777;SDS011;32536;47.128;8.746;2024-01-15T12:33:17;7.18;;;4.65;;
46777;SDS011;32536;47.128;8.746;2024-01-15T12:35:45;6.45;;;3.42;;
46777;SDS011;32536;47.128;8.746;2024-01-15T12:38:12;6.15;;;2.97;;
46777;SDS011;32536;47.128;8.746;2024-01-15T12:40:39;7.82;;;2.97;;
46777;SDS011;32536;47.128;8.746;2024-01-15T12:43:06;5.88;;;4.00;;
46777;SDS011;32536;47.128;8.746;2024-01-15T12:45:32;4.97;;;3.28;;
46777;SDS011;32536;47.128;8.746;2024-01-15T12:48:01;3.22;;;2.10;;
46777;SDS011;32536;47.128;8.746;2024-01-15T12:50:28;3.15;;;2.58;;
46777;SDS011;32536;47.128;8.746;2024-01-15T12:52:56;3.22;;;2.50;;
46777;SDS011;32536;47.128;8.746;2024-01-15T12:55:25;4.07;;;2.55;;
46777;SDS011;32536;47.128;8.746;2024-01-15T12:57:52;3.58;;;1.55;;
46777;SDS011;32536;47.128;8.746;2024-01-15T13:00:20;2.90;;;1.83;;
46777;SDS011;32536;47.128;8.746;2024-01-15T13:02:47;4.07;;;2.58;;
46777;SDS011;32536;47.128;8.746;2024-01-15T13:05:15;3.42;;;2.75;;
46777;SDS011;32536;47.128;8.746;2024-01-15T13:07:43;3.95;;;2.65;;
46777;SDS011;32536;47.128;8.746;2024-01-15T13:10:10;5.97;;;3.50;;
46777;SDS011;32536;47.128;8.746;2024-01-15T13:12:37;4.32;;;2.78;;
46777;SDS011;32536;47.128;8.746;2024-01-15T13:15:05;3.35;;;1.60;;
46777;SDS011;32536;47.128;8.746;2024-01-15T13:17:37;3.67;;;1.70;;
46777;SDS011;32536;47.128;8.746;2024-01-15T13:20:06;3.47;;;1.70;;
46777;SDS011;32536;47.128;8.746;2024-01-15T13:22:34;3.33;;;2.22;;
46777;SDS011;32536;47.128;8.746;2024-01-15T13:25:01;3.85;;;3.42;;
46777;SDS011;32536;47.128;8.746;2024-01-15T13:27:29;3.78;;;2.90;;
46777;SDS011;32536;47.128;8.746;2024-01-15T13:29:56;3.47;;;1.77;;
46777;SDS011;32536;47.128;8.746;2024-01-15T13:32:27;6.50;;;3.72;;
46777;SDS011;32536;47.128;8.746;2024-01-15T13:34:57;3.65;;;2.80;;
46777;SDS011;32536;47.128;8.746;2024-01-15T13:37:25;4.05;;;3.30;;
46777;SDS011;32536;47.128;8.746;2024-01-15T13:39:52;2.70;;;1.52;;
46777;SDS011;32536;47.128;8.746;2024-01-15T13:42:20;4.15;;;2.70;;
46777;SDS011;32536;47.128;8.746;2024-01-15T13:44:52;4.70;;;2.65;;
46777;SDS011;32536;47.128;8.746;2024-01-15T13:47:20;4.63;;;2.90;;
46777;SDS011;32536;47.128;8.746;2024-01-15T13:49:46;3.53;;;1.98;;
46777;SDS011;32536;47.128;8.746;2024-01-15T13:52:13;3.95;;;2.88;;
46777;SDS011;32536;47.128;8.746;2024-01-15T13:54:40;4.78;;;2.67;;
46777;SDS011;32536;47.128;8.746;2024-01-15T13:57:07;4.50;;;3.08;;
46777;SDS011;32536;47.128;8.746;2024-01-15T13:59:34;3.35;;;3.05;;
46777;SDS011;32536;47.128;8.746;2024-01-15T14:02:01;3.63;;;1.70;;
46777;SDS011;32536;47.128;8.746;2024-01-15T14:04:28;3.90;;;2.03;;
46777;SDS011;32536;47.128;8.746;2024-01-15T14:06:55;3.58;;;1.98;;
46777;SDS011;32536;47.128;8.746;2024-01-15T14:09:22;4.97;;;3.88;;
46777;SDS011;32536;47.128;8.746;2024-01-15T14:11:49;3.83;;;2.95;;
46777;SDS011;32536;47.128;8.746;2024-01-15T14:14:16;6.75;;;4.63;;
46777;SDS011;32536;47.128;8.746;2024-01-15T14:16:42;5.95;;;3.88;;
46777;SDS011;32536;47.128;8.746;2024-01-15T14:19:09;3.38;;;2.67;;
46777;SDS011;32536;47.128;8.746;2024-01-15T14:21:36;5.38;;;3.55;;
46777;SDS011;32536;47.128;8.746;2024-01-15T14:24:04;4.50;;;3.03;;
46777;SDS011;32536;47.128;8.746;2024-01-15T14:26:31;4.40;;;3.40;;
46777;SDS011;32536;47.128;8.746;2024-01-15T14:28:57;5.80;;;4.13;;
46777;SDS011;32536;47.128;8.746;2024-01-15T14:31:24;4.07;;;2.90;;
46777;SDS011;32536;47.128;8.746;2024-01-15T14:33:52;3.30;;;2.17;;
46777;SDS011;32536;47.128;8.746;2024-01-15T14:36:20;3.15;;;1.92;;
46777;SDS011;32536;47.128;8.746;2024-01-15T14:38:47;4.30;;;2.83;;
46777;SDS011;32536;47.128;8.746;2024-01-15T14:41:14;5.47;;;2.75;;
46777;SDS011;32536;47.128;8.746;2024-01-15T14:43:42;5.90;;;3.42;;
46777;SDS011;32536;47.128;8.746;2024-01-15T14:46:10;3.70;;;2.25;;
46777;SDS011;32536;47.128;8.746;2024-01-15T14:48:37;5.55;;;2.40;;
46777;SDS011;32536;47.128;8.746;2024-01-15T14:51:04;3.55;;;2.53;;
46777;SDS011;32536;47.128;8.746;2024-01-15T14:53:31;7.35;;;3.88;;
46777;SDS011;32536;47.128;8.746;2024-01-15T14:55:58;5.82;;;3.78;;
46777;SDS011;32536;47.128;8.746;2024-01-15T14:58:25;5.07;;;3.15;;
46777;SDS011;32536;47.128;8.746;2024-01-15T15:00:51;4.35;;;2.92;;